EST,Max TemperatureF,Mean TemperatureF,Min TemperatureF,Max Dew PointF,MeanDew PointF,Min DewpointF,Max Humidity, Mean Humidity, Min Humidity, Max Sea Level PressureIn, Mean Sea Level PressureIn, Min Sea Level PressureIn, Max VisibilityMiles, Mean VisibilityMiles, Min VisibilityMiles, Max Wind SpeedMPH, Mean Wind SpeedMPH, Max Gust SpeedMPH,PrecipitationIn, CloudCover, Events, WindDirDegrees
2012-12-1,50,37,24,39,30,25,100,96,66,30.45,30.39,30.35,10,6,2,7,0,,0.00,1,,5
2012-12-2,62,45,28,52,38,28,100,91,55,30.41,30.28,30.15,10,4,0,6,1,,0.00,7,Fog,189
2012-12-3,71,55,39,54,46,39,100,92,53,30.26,30.21,30.16,10,7,1,5,0,,0.00,2,Fog,235
2012-12-4,73,58,44,55,49,43,100,79,47,30.24,30.15,30.02,10,10,10,10,2,16,0.00,5,,195
2012-12-5,62,50,37,52,37,25,77,56,34,30.32,30.16,30.01,10,10,10,18,9,25,0.00,2,Rain,331
2012-12-6,44,34,23,32,25,21,100,78,42,30.41,30.32,30.25,10,10,10,10,4,16,0.00,1,,13
2012-12-7,51,44,37,46,40,32,93,87,71,30.24,30.12,29.97,10,10,10,8,5,,0.00,8,,166
2012-12-8,64,56,48,54,50,46,100,92,68,30.02,29.94,29.85,10,8,1,8,3,,0.00,5,,188
2012-12-9,53,50,48,52,50,46,100,97,88,30.18,30.10,29.98,9,4,0,9,3,,0.01,8,,44
2012-12-10,66,57,48,61,53,48,100,93,77,29.97,29.76,29.60,10,5,0,16,3,24,0.00,8,,206
2012-12-11,55,44,33,50,37,28,100,76,50,30.24,29.97,29.68,10,10,10,18,11,28,0.00,6,,348
2012-12-12,44,38,33,34,29,27,93,72,49,30.44,30.33,30.08,10,10,10,10,5,,0.00,3,,3
2012-12-13,48,36,23,28,27,19,100,79,32,30.48,30.42,30.36,10,10,10,9,5,,0.00,0,,5
2012-12-14,53,35,17,32,23,16,100,88,35,30.36,30.31,30.22,10,10,10,5,0,,0.00,0,,205
2012-12-15,55,40,26,39,31,25,100,80,38,30.31,30.21,30.12,10,10,10,8,1,,0.00,2,,159
2012-12-16,48,45,42,46,44,39,100,96,81,30.14,29.99,29.84,10,8,3,13,2,20,0.01,8,,173
2012-12-17,53,48,44,54,48,45,100,98,93,29.86,29.77,29.55,9,3,0,9,2,,0.00,8,Fog,163
2012-12-18,57,45,33,54,42,30,100,86,55,29.82,29.66,29.55,10,7,2,15,6,21,0.00,5,,256
2012-12-19,55,40,26,39,33,27,100,77,51,30.19,29.97,29.82,10,10,10,16,3,24,0.00,2,,343
2012-12-20,51,42,32,52,38,32,100,93,62,30.21,29.95,29.37,10,9,5,21,4,28,0.01,3,,133
2012-12-21,55,46,37,55,33,21,100,68,45,29.60,29.44,29.30,10,10,3,22,13,32,0.01,7,,281
2012-12-22,44,34,24,25,22,19,86,55,39,30.05,29.82,29.60,10,10,10,29,15,44,0.00,3,,316
2012-12-23,50,34,19,28,23,18,100,73,28,30.08,29.99,29.91,10,10,10,10,2,17,0.00,0,,197
2012-12-24,37,29,21,37,29,21,100,95,87,30.09,29.99,29.90,10,6,1,9,1,,0.00,4,Snow,357
2012-12-25,48,40,33,41,35,32,100,92,62,30.25,30.06,29.91,10,3,0,14,3,18,0.00,7,Fog,353
2012-12-26,41,36,32,36,32,28,100,86,70,30.24,30.01,29.46,10,7,1,14,7,21,0.00,7,Rain-Snow,39
2012-12-27,41,38,35,36,31,27,100,77,61,30.04,29.75,29.45,10,10,5,28,12,37,0.00,7,,302
2012-12-28,42,36,30,30,29,27,100,78,53,30.16,30.08,30.03,10,10,10,16,7,21,0.00,1,,325
2012-12-29,42,38,33,37,32,28,100,83,61,30.03,29.82,29.59,10,9,2,22,4,34,0.00,7,Snow,291
2012-12-30,42,33,24,28,22,19,86,59,42,30.35,30.17,29.85,10,10,10,30,15,41,0.00,3,,315
2012-12-31,37,28,19,30,25,18,100,86,60,30.34,30.19,30.01,10,10,10,6,0,,0.00,2,,164